Terminal Aerodrome Forecast
Issued by NWS Quad Cities IA IL

Home | Current Version | Previous Version | Text Only | Print | Product List | Glossary On
Versions: 1 2 3 4 5 6 7 8 9 10 11 12 13 14 15 16 17
000
FTUS43 KDVN 022331
TAFMLI
TAF
KMLI 022331Z 0300/0324 25012G18KT P6SM FEW150
     FM030100 25011KT P6SM VCTS FEW040CB SCT150 SCT250
     FM030400 28008KT P6SM SCT150
     FM030700 33005KT P6SM SKC
     FM031600 30008KT P6SM SCT060=

USA.gov is the U.S. government's official web portal to all federal, state and local government web resources and services.